sensor_id;sensor_type;location;lat;lon;timestamp;P1;durP1;ratioP1;P2;durP2;ratioP2
1467;SDS011;727;48.892;9.544;2022-09-28T00:00:16;1.88;;;1.75;;
1467;SDS011;727;48.892;9.544;2022-09-28T00:02:44;2.80;;;2.10;;
1467;SDS011;727;48.892;9.544;2022-09-28T00:05:12;1.40;;;1.30;;
1467;SDS011;727;48.892;9.544;2022-09-28T00:07:39;3.05;;;2.08;;
1467;SDS011;727;48.892;9.544;2022-09-28T00:10:06;3.00;;;2.10;;
1467;SDS011;727;48.892;9.544;2022-09-28T00:12:33;2.25;;;2.08;;
1467;SDS011;727;48.892;9.544;2022-09-28T00:15:00;1.98;;;1.88;;
1467;SDS011;727;48.892;9.544;2022-09-28T00:17:27;3.42;;;2.10;;
1467;SDS011;727;48.892;9.544;2022-09-28T00:19:56;2.00;;;1.90;;
1467;SDS011;727;48.892;9.544;2022-09-28T00:22:23;3.20;;;2.72;;
1467;SDS011;727;48.892;9.544;2022-09-28T00:24:49;2.60;;;2.00;;
1467;SDS011;727;48.892;9.544;2022-09-28T00:27:16;2.28;;;2.10;;
1467;SDS011;727;48.892;9.544;2022-09-28T00:29:43;3.05;;;2.65;;
1467;SDS011;727;48.892;9.544;2022-09-28T00:32:10;2.78;;;2.58;;
1467;SDS011;727;48.892;9.544;2022-09-28T00:34:40;3.72;;;3.42;;
1467;SDS011;727;48.892;9.544;2022-09-28T00:37:11;3.38;;;3.17;;
1467;SDS011;727;48.892;9.544;2022-09-28T00:39:39;3.22;;;2.22;;
1467;SDS011;727;48.892;9.544;2022-09-28T00:42:09;2.22;;;2.08;;
1467;SDS011;727;48.892;9.544;2022-09-28T00:44:39;3.03;;;2.83;;
1467;SDS011;727;48.892;9.544;2022-09-28T00:47:34;2.00;;;1.90;;
1467;SDS011;727;48.892;9.544;2022-09-28T00:50:08;6.53;;;2.78;;
1467;SDS011;727;48.892;9.544;2022-09-28T00:52:41;4.85;;;2.15;;
1467;SDS011;727;48.892;9.544;2022-09-28T00:55:13;1.95;;;1.75;;
1467;SDS011;727;48.892;9.544;2022-09-28T00:57:43;3.55;;;2.35;;
1467;SDS011;727;48.892;9.544;2022-09-28T01:00:13;3.22;;;2.28;;
1467;SDS011;727;48.892;9.544;2022-09-28T01:02:41;1.55;;;1.45;;
1467;SDS011;727;48.892;9.544;2022-09-28T01:05:08;2.92;;;2.00;;
1467;SDS011;727;48.892;9.544;2022-09-28T01:07:36;2.47;;;1.42;;
1467;SDS011;727;48.892;9.544;2022-09-28T01:10:04;5.55;;;1.60;;
1467;SDS011;727;48.892;9.544;2022-09-28T01:12:35;1.45;;;1.35;;
1467;SDS011;727;48.892;9.544;2022-09-28T01:15:02;3.15;;;1.80;;
1467;SDS011;727;48.892;9.544;2022-09-28T01:17:32;2.10;;;2.00;;
1467;SDS011;727;48.892;9.544;2022-09-28T01:20:31;3.08;;;1.90;;
1467;SDS011;727;48.892;9.544;2022-09-28T01:23:24;1.90;;;1.80;;
1467;SDS011;727;48.892;9.544;2022-09-28T01:26:30;2.10;;;1.90;;
1467;SDS011;727;48.892;9.544;2022-09-28T01:29:09;2.30;;;2.10;;
1467;SDS011;727;48.892;9.544;2022-09-28T01:31:43;2.47;;;2.28;;
1467;SDS011;727;48.892;9.544;2022-09-28T01:34:14;2.53;;;2.13;;
1467;SDS011;727;48.892;9.544;2022-09-28T01:36:46;3.20;;;1.90;;
1467;SDS011;727;48.892;9.544;2022-09-28T01:39:17;2.20;;;1.70;;
1467;SDS011;727;48.892;9.544;2022-09-28T01:41:49;1.70;;;1.60;;
1467;SDS011;727;48.892;9.544;2022-09-28T01:44:19;2.47;;;2.15;;
1467;SDS011;727;48.892;9.544;2022-09-28T01:46:49;2.05;;;1.45;;
1467;SDS011;727;48.892;9.544;2022-09-28T01:49:18;2.92;;;1.90;;
1467;SDS011;727;48.892;9.544;2022-09-28T01:51:49;2.88;;;1.55;;
1467;SDS011;727;48.892;9.544;2022-09-28T01:54:22;2.00;;;1.90;;
1467;SDS011;727;48.892;9.544;2022-09-28T01:56:55;2.22;;;2.03;;
1467;SDS011;727;48.892;9.544;2022-09-28T01:59:28;2.13;;;1.92;;
1467;SDS011;727;48.892;9.544;2022-09-28T02:01:58;5.13;;;1.95;;
1467;SDS011;727;48.892;9.544;2022-09-28T02:04:30;5.10;;;2.00;;
1467;SDS011;727;48.892;9.544;2022-09-28T02:07:01;1.60;;;1.38;;
1467;SDS011;727;48.892;9.544;2022-09-28T02:09:32;2.15;;;0.98;;
1467;SDS011;727;48.892;9.544;2022-09-28T02:12:05;4.05;;;2.00;;
1467;SDS011;727;48.892;9.544;2022-09-28T02:14:38;1.75;;;1.30;;
1467;SDS011;727;48.892;9.544;2022-09-28T02:17:08;2.22;;;1.58;;
1467;SDS011;727;48.892;9.544;2022-09-28T02:19:35;4.88;;;2.40;;
1467;SDS011;727;48.892;9.544;2022-09-28T02:22:04;4.20;;;2.05;;
1467;SDS011;727;48.892;9.544;2022-09-28T02:24:39;2.55;;;1.92;;
1467;SDS011;727;48.892;9.544;2022-09-28T02:27:14;1.50;;;1.40;;
1467;SDS011;727;48.892;9.544;2022-09-28T02:29:47;1.90;;;1.80;;
1467;SDS011;727;48.892;9.544;2022-09-28T02:32:14;3.55;;;1.80;;
1467;SDS011;727;48.892;9.544;2022-09-28T02:34:42;2.00;;;1.80;;
1467;SDS011;727;48.892;9.544;2022-09-28T02:37:09;5.10;;;1.80;;
1467;SDS011;727;48.892;9.544;2022-09-28T02:39:36;2.03;;;1.85;;
1467;SDS011;727;48.892;9.544;2022-09-28T02:42:05;2.97;;;1.70;;
1467;SDS011;727;48.892;9.544;2022-09-28T02:44:51;6.10;;;2.08;;
1467;SDS011;727;48.892;9.544;2022-09-28T02:47:40;4.32;;;1.50;;
1467;SDS011;727;48.892;9.544;2022-09-28T02:50:20;4.43;;;1.70;;
1467;SDS011;727;48.892;9.544;2022-09-28T02:52:59;3.42;;;1.98;;
1467;SDS011;727;48.892;9.544;2022-09-28T02:55:42;4.53;;;1.58;;
1467;SDS011;727;48.892;9.544;2022-09-28T02:58:23;1.55;;;1.45;;
1467;SDS011;727;48.892;9.544;2022-09-28T03:01:00;2.60;;;1.42;;
1467;SDS011;727;48.892;9.544;2022-09-28T03:03:34;7.82;;;2.05;;
1467;SDS011;727;48.892;9.544;2022-09-28T03:06:10;4.05;;;3.75;;
1467;SDS011;727;48.892;9.544;2022-09-28T03:08:44;3.33;;;2.20;;
1467;SDS011;727;48.892;9.544;2022-09-28T03:11:18;7.57;;;2.20;;
1467;SDS011;727;48.892;9.544;2022-09-28T03:13:48;4.32;;;2.17;;
1467;SDS011;727;48.892;9.544;2022-09-28T03:16:18;3.20;;;2.30;;
1467;SDS011;727;48.892;9.544;2022-09-28T03:18:45;3.33;;;2.00;;
1467;SDS011;727;48.892;9.544;2022-09-28T03:21:13;6.38;;;3.10;;
1467;SDS011;727;48.892;9.544;2022-09-28T03:23:40;3.95;;;2.13;;
1467;SDS011;727;48.892;9.544;2022-09-28T03:26:07;2.80;;;2.15;;
1467;SDS011;727;48.892;9.544;2022-09-28T03:28:36;2.30;;;1.70;;
1467;SDS011;727;48.892;9.544;2022-09-28T03:31:03;3.33;;;1.70;;
1467;SDS011;727;48.892;9.544;2022-09-28T03:33:31;3.15;;;2.50;;
1467;SDS011;727;48.892;9.544;2022-09-28T03:35:58;5.13;;;1.95;;
1467;SDS011;727;48.892;9.544;2022-09-28T03:38:25;4.90;;;1.88;;
1467;SDS011;727;48.892;9.544;2022-09-28T03:40:52;3.30;;;1.88;;
1467;SDS011;727;48.892;9.544;2022-09-28T03:43:19;3.42;;;1.92;;
1467;SDS011;727;48.892;9.544;2022-09-28T03:45:53;2.40;;;1.77;;
1467;SDS011;727;48.892;9.544;2022-09-28T03:48:21;7.20;;;2.75;;
1467;SDS011;727;48.892;9.544;2022-09-28T03:50:52;3.33;;;2.80;;
1467;SDS011;727;48.892;9.544;2022-09-28T03:53:20;7.57;;;2.67;;
1467;SDS011;727;48.892;9.544;2022-09-28T03:55:47;4.90;;;2.78;;
1467;SDS011;727;48.892;9.544;2022-09-28T03:58:17;3.95;;;2.08;;
1467;SDS011;727;48.892;9.544;2022-09-28T04:00:44;6.05;;;1.73;;
1467;SDS011;727;48.892;9.544;2022-09-28T04:03:11;1.73;;;1.42;;
1467;SDS011;727;48.892;9.544;2022-09-28T04:05:38;7.65;;;2.35;;
1467;SDS011;727;48.892;9.544;2022-09-28T04:08:06;2.97;;;2.10;;
1467;SDS011;727;48.892;9.544;2022-09-28T04:10:33;3.13;;;1.50;;
1467;SDS011;727;48.892;9.544;2022-09-28T04:12:59;8.40;;;1.70;;
1467;SDS011;727;48.892;9.544;2022-09-28T04:15:26;2.40;;;1.23;;
1467;SDS011;727;48.892;9.544;2022-09-28T04:17:53;2.90;;;1.63;;
1467;SDS011;727;48.892;9.544;2022-09-28T04:20:19;2.15;;;1.45;;
1467;SDS011;727;48.892;9.544;2022-09-28T04:22:46;4.00;;;1.65;;
1467;SDS011;727;48.892;9.544;2022-09-28T04:25:14;2.45;;;1.23;;
1467;SDS011;727;48.892;9.544;2022-09-28T04:27:43;2.00;;;1.00;;
1467;SDS011;727;48.892;9.544;2022-09-28T04:30:27;2.20;;;1.02;;
1467;SDS011;727;48.892;9.544;2022-09-28T04:32:54;2.55;;;1.33;;
1467;SDS011;727;48.892;9.544;2022-09-28T04:35:21;1.58;;;1.33;;
1467;SDS011;727;48.892;9.544;2022-09-28T04:37:48;2.47;;;1.90;;
1467;SDS011;727;48.892;9.544;2022-09-28T04:40:16;1.30;;;1.20;;
1467;SDS011;727;48.892;9.544;2022-09-28T04:42:43;1.10;;;1.10;;
1467;SDS011;727;48.892;9.544;2022-09-28T04:45:17;8.40;;;7.63;;
1467;SDS011;727;48.892;9.544;2022-09-28T04:47:44;27.42;;;17.90;;
1467;SDS011;727;48.892;9.544;2022-09-28T04:50:11;4.53;;;2.95;;
1467;SDS011;727;48.892;9.544;2022-09-28T04:52:37;2.30;;;2.10;;
1467;SDS011;727;48.892;9.544;2022-09-28T04:55:04;2.55;;;2.33;;
1467;SDS011;727;48.892;9.544;2022-09-28T04:57:34;3.88;;;2.50;;
1467;SDS011;727;48.892;9.544;2022-09-28T05:00:00;4.25;;;2.00;;
1467;SDS011;727;48.892;9.544;2022-09-28T05:02:27;2.42;;;1.50;;
1467;SDS011;727;48.892;9.544;2022-09-28T05:04:54;5.88;;;2.60;;
1467;SDS011;727;48.892;9.544;2022-09-28T05:07:22;3.22;;;2.50;;
1467;SDS011;727;48.892;9.544;2022-09-28T05:09:49;1.90;;;1.75;;
1467;SDS011;727;48.892;9.544;2022-09-28T05:12:16;4.97;;;2.13;;
1467;SDS011;727;48.892;9.544;2022-09-28T05:14:44;7.72;;;2.42;;
1467;SDS011;727;48.892;9.544;2022-09-28T05:17:11;2.58;;;2.13;;
1467;SDS011;727;48.892;9.544;2022-09-28T05:19:38;27.85;;;25.05;;
1467;SDS011;727;48.892;9.544;2022-09-28T05:22:04;24.08;;;14.82;;
1467;SDS011;727;48.892;9.544;2022-09-28T05:24:35;7.35;;;3.63;;
1467;SDS011;727;48.892;9.544;2022-09-28T05:27:02;3.97;;;2.97;;
1467;SDS011;727;48.892;9.544;2022-09-28T05:29:29;2.38;;;2.17;;
1467;SDS011;727;48.892;9.544;2022-09-28T05:31:57;6.05;;;5.07;;
1467;SDS011;727;48.892;9.544;2022-09-28T05:34:25;7.90;;;4.72;;
1467;SDS011;727;48.892;9.544;2022-09-28T05:36:52;5.00;;;3.90;;
1467;SDS011;727;48.892;9.544;2022-09-28T05:39:18;6.32;;;5.80;;
1467;SDS011;727;48.892;9.544;2022-09-28T05:41:45;4.00;;;3.65;;
1467;SDS011;727;48.892;9.544;2022-09-28T05:44:12;13.60;;;10.48;;
1467;SDS011;727;48.892;9.544;2022-09-28T05:46:39;3.72;;;3.30;;
1467;SDS011;727;48.892;9.544;2022-09-28T05:49:07;2.60;;;2.08;;
1467;SDS011;727;48.892;9.544;2022-09-28T05:51:33;23.48;;;17.70;;
1467;SDS011;727;48.892;9.544;2022-09-28T05:54:00;50.00;;;33.63;;
1467;SDS011;727;48.892;9.544;2022-09-28T05:56:28;34.97;;;25.98;;
1467;SDS011;727;48.892;9.544;2022-09-28T05:58:55;20.85;;;17.17;;
1467;SDS011;727;48.892;9.544;2022-09-28T06:01:22;28.25;;;20.10;;
1467;SDS011;727;48.892;9.544;2022-09-28T06:03:49;19.67;;;13.95;;
1467;SDS011;727;48.892;9.544;2022-09-28T06:06:17;15.98;;;11.82;;
1467;SDS011;727;48.892;9.544;2022-09-28T06:08:44;38.95;;;29.35;;
1467;SDS011;727;48.892;9.544;2022-09-28T06:11:12;22.60;;;18.35;;
1467;SDS011;727;48.892;9.544;2022-09-28T06:13:39;25.75;;;21.52;;
1467;SDS011;727;48.892;9.544;2022-09-28T06:16:05;14.98;;;10.60;;
1467;SDS011;727;48.892;9.544;2022-09-28T06:18:34;6.38;;;4.88;;
1467;SDS011;727;48.892;9.544;2022-09-28T06:21:01;8.05;;;6.22;;
1467;SDS011;727;48.892;9.544;2022-09-28T06:23:31;12.30;;;10.80;;
1467;SDS011;727;48.892;9.544;2022-09-28T06:25:57;8.85;;;6.25;;
1467;SDS011;727;48.892;9.544;2022-09-28T06:28:24;11.43;;;5.70;;
1467;SDS011;727;48.892;9.544;2022-09-28T06:30:51;6.30;;;4.05;;
1467;SDS011;727;48.892;9.544;2022-09-28T06:33:18;3.67;;;3.15;;
1467;SDS011;727;48.892;9.544;2022-09-28T06:35:44;3.50;;;2.92;;
1467;SDS011;727;48.892;9.544;2022-09-28T06:38:11;4.28;;;2.90;;
1467;SDS011;727;48.892;9.544;2022-09-28T06:40:40;7.00;;;4.78;;
1467;SDS011;727;48.892;9.544;2022-09-28T06:43:08;5.60;;;4.03;;
1467;SDS011;727;48.892;9.544;2022-09-28T06:45:38;11.52;;;7.82;;
1467;SDS011;727;48.892;9.544;2022-09-28T06:48:07;5.20;;;4.45;;
1467;SDS011;727;48.892;9.544;2022-09-28T06:50:35;8.50;;;6.05;;
1467;SDS011;727;48.892;9.544;2022-09-28T06:53:04;9.45;;;5.10;;
1467;SDS011;727;48.892;9.544;2022-09-28T06:55:33;5.00;;;4.60;;
1467;SDS011;727;48.892;9.544;2022-09-28T06:58:05;4.40;;;3.97;;
1467;SDS011;727;48.892;9.544;2022-09-28T07:00:35;4.55;;;4.20;;
1467;SDS011;727;48.892;9.544;2022-09-28T07:03:03;3.50;;;3.15;;
1467;SDS011;727;48.892;9.544;2022-09-28T07:05:31;6.72;;;3.80;;
1467;SDS011;727;48.892;9.544;2022-09-28T07:08:01;3.83;;;3.50;;
1467;SDS011;727;48.892;9.544;2022-09-28T07:10:28;3.42;;;3.13;;
1467;SDS011;727;48.892;9.544;2022-09-28T07:12:57;6.68;;;4.15;;
1467;SDS011;727;48.892;9.544;2022-09-28T07:15:28;4.40;;;3.97;;
1467;SDS011;727;48.892;9.544;2022-09-28T07:17:55;17.15;;;8.93;;
1467;SDS011;727;48.892;9.544;2022-09-28T07:20:23;6.00;;;4.35;;
1467;SDS011;727;48.892;9.544;2022-09-28T07:22:51;5.18;;;3.75;;
1467;SDS011;727;48.892;9.544;2022-09-28T07:25:18;6.93;;;3.95;;
1467;SDS011;727;48.892;9.544;2022-09-28T07:27:45;5.93;;;4.65;;
1467;SDS011;727;48.892;9.544;2022-09-28T07:30:12;3.40;;;3.05;;
1467;SDS011;727;48.892;9.544;2022-09-28T07:32:41;8.23;;;4.95;;
1467;SDS011;727;48.892;9.544;2022-09-28T07:35:09;11.95;;;4.75;;
1467;SDS011;727;48.892;9.544;2022-09-28T07:37:37;6.97;;;4.63;;
1467;SDS011;727;48.892;9.544;2022-09-28T07:40:04;5.72;;;4.75;;
1467;SDS011;727;48.892;9.544;2022-09-28T07:42:50;7.70;;;5.63;;
1467;SDS011;727;48.892;9.544;2022-09-28T07:45:18;7.47;;;5.25;;
1467;SDS011;727;48.892;9.544;2022-09-28T07:47:49;4.70;;;4.03;;
1467;SDS011;727;48.892;9.544;2022-09-28T07:50:16;6.95;;;3.90;;
1467;SDS011;727;48.892;9.544;2022-09-28T07:52:42;5.20;;;3.60;;
1467;SDS011;727;48.892;9.544;2022-09-28T07:55:09;11.32;;;5.90;;
1467;SDS011;727;48.892;9.544;2022-09-28T07:57:36;4.93;;;4.10;;
1467;SDS011;727;48.892;9.544;2022-09-28T08:00:04;6.78;;;4.30;;
1467;SDS011;727;48.892;9.544;2022-09-28T08:02:33;6.63;;;5.18;;
1467;SDS011;727;48.892;9.544;2022-09-28T08:05:01;5.57;;;4.18;;
1467;SDS011;727;48.892;9.544;2022-09-28T08:07:28;6.18;;;4.60;;
1467;SDS011;727;48.892;9.544;2022-09-28T08:09:55;8.20;;;3.67;;
1467;SDS011;727;48.892;9.544;2022-09-28T08:12:22;6.78;;;4.20;;
1467;SDS011;727;48.892;9.544;2022-09-28T08:14:49;5.38;;;4.82;;
1467;SDS011;727;48.892;9.544;2022-09-28T08:17:16;7.57;;;3.40;;
1467;SDS011;727;48.892;9.544;2022-09-28T08:19:43;4.70;;;3.63;;
1467;SDS011;727;48.892;9.544;2022-09-28T08:22:29;4.20;;;3.70;;
1467;SDS011;727;48.892;9.544;2022-09-28T08:24:56;5.70;;;3.30;;
1467;SDS011;727;48.892;9.544;2022-09-28T08:27:23;4.07;;;3.70;;
1467;SDS011;727;48.892;9.544;2022-09-28T08:29:50;6.38;;;4.10;;
1467;SDS011;727;48.892;9.544;2022-09-28T08:32:16;5.73;;;4.23;;
1467;SDS011;727;48.892;9.544;2022-09-28T08:34:43;6.75;;;4.13;;
1467;SDS011;727;48.892;9.544;2022-09-28T08:37:10;10.27;;;4.07;;
1467;SDS011;727;48.892;9.544;2022-09-28T08:39:38;5.53;;;4.07;;
1467;SDS011;727;48.892;9.544;2022-09-28T08:42:18;3.90;;;3.50;;
1467;SDS011;727;48.892;9.544;2022-09-28T08:44:55;4.53;;;3.77;;
1467;SDS011;727;48.892;9.544;2022-09-28T08:47:28;4.37;;;3.97;;
1467;SDS011;727;48.892;9.544;2022-09-28T08:50:19;5.53;;;3.10;;
1467;SDS011;727;48.892;9.544;2022-09-28T08:52:52;7.20;;;4.53;;
1467;SDS011;727;48.892;9.544;2022-09-28T08:55:23;3.67;;;3.37;;
1467;SDS011;727;48.892;9.544;2022-09-28T08:57:54;8.00;;;3.50;;
1467;SDS011;727;48.892;9.544;2022-09-28T09:00:28;9.40;;;3.77;;
1467;SDS011;727;48.892;9.544;2022-09-28T09:02:58;3.43;;;3.13;;
1467;SDS011;727;48.892;9.544;2022-09-28T09:05:33;7.53;;;3.47;;
1467;SDS011;727;48.892;9.544;2022-09-28T09:08:14;3.70;;;3.40;;
1467;SDS011;727;48.892;9.544;2022-09-28T09:10:56;4.60;;;3.53;;
1467;SDS011;727;48.892;9.544;2022-09-28T09:13:32;3.20;;;2.97;;
1467;SDS011;727;48.892;9.544;2022-09-28T09:16:10;3.87;;;3.47;;
1467;SDS011;727;48.892;9.544;2022-09-28T09:18:47;3.80;;;2.70;;
1467;SDS011;727;48.892;9.544;2022-09-28T09:21:20;4.70;;;2.43;;
1467;SDS011;727;48.892;9.544;2022-09-28T09:24:02;4.60;;;2.40;;
1467;SDS011;727;48.892;9.544;2022-09-28T09:26:37;3.33;;;2.30;;
1467;SDS011;727;48.892;9.544;2022-09-28T09:29:11;6.90;;;2.47;;
1467;SDS011;727;48.892;9.544;2022-09-28T09:31:53;4.40;;;3.43;;
1467;SDS011;727;48.892;9.544;2022-09-28T09:34:39;2.97;;;2.60;;
1467;SDS011;727;48.892;9.544;2022-09-28T09:37:22;2.93;;;2.37;;
1467;SDS011;727;48.892;9.544;2022-09-28T09:40:09;7.67;;;2.47;;
1467;SDS011;727;48.892;9.544;2022-09-28T09:42:54;5.50;;;3.50;;
1467;SDS011;727;48.892;9.544;2022-09-28T09:45:33;3.27;;;3.00;;
1467;SDS011;727;48.892;9.544;2022-09-28T09:48:12;6.90;;;3.77;;
1467;SDS011;727;48.892;9.544;2022-09-28T09:50:43;6.00;;;3.27;;
1467;SDS011;727;48.892;9.544;2022-09-28T09:53:15;4.10;;;3.70;;
1467;SDS011;727;48.892;9.544;2022-09-28T09:55:46;3.63;;;3.43;;
1467;SDS011;727;48.892;9.544;2022-09-28T09:58:17;3.60;;;2.60;;
1467;SDS011;727;48.892;9.544;2022-09-28T10:00:47;3.53;;;3.23;;
1467;SDS011;727;48.892;9.544;2022-09-28T10:03:18;2.53;;;2.33;;
1467;SDS011;727;48.892;9.544;2022-09-28T10:05:50;3.47;;;2.60;;
1467;SDS011;727;48.892;9.544;2022-09-28T10:08:20;6.80;;;3.17;;
1467;SDS011;727;48.892;9.544;2022-09-28T10:10:49;6.23;;;2.73;;
1467;SDS011;727;48.892;9.544;2022-09-28T10:13:20;7.03;;;2.90;;
1467;SDS011;727;48.892;9.544;2022-09-28T10:15:47;2.83;;;2.63;;
1467;SDS011;727;48.892;9.544;2022-09-28T10:18:15;4.27;;;2.80;;
1467;SDS011;727;48.892;9.544;2022-09-28T10:20:45;5.00;;;2.50;;
1467;SDS011;727;48.892;9.544;2022-09-28T10:23:14;8.93;;;3.63;;
1467;SDS011;727;48.892;9.544;2022-09-28T10:25:47;3.63;;;2.60;;
1467;SDS011;727;48.892;9.544;2022-09-28T10:28:17;5.90;;;3.10;;
1467;SDS011;727;48.892;9.544;2022-09-28T10:30:47;7.50;;;2.60;;
1467;SDS011;727;48.892;9.544;2022-09-28T10:33:28;3.33;;;2.33;;
1467;SDS011;727;48.892;9.544;2022-09-28T10:35:55;6.97;;;2.80;;
1467;SDS011;727;48.892;9.544;2022-09-28T10:38:23;3.90;;;2.50;;
1467;SDS011;727;48.892;9.544;2022-09-28T10:40:51;3.10;;;2.40;;
1467;SDS011;727;48.892;9.544;2022-09-28T10:43:22;4.00;;;2.27;;
1467;SDS011;727;48.892;9.544;2022-09-28T10:46:00;2.73;;;2.53;;
1467;SDS011;727;48.892;9.544;2022-09-28T10:48:34;3.13;;;2.87;;
1467;SDS011;727;48.892;9.544;2022-09-28T10:51:12;2.37;;;1.67;;
1467;SDS011;727;48.892;9.544;2022-09-28T10:53:38;3.80;;;2.70;;
1467;SDS011;727;48.892;9.544;2022-09-28T10:56:06;9.00;;;3.60;;
1467;SDS011;727;48.892;9.544;2022-09-28T10:58:44;3.40;;;2.20;;
1467;SDS011;727;48.892;9.544;2022-09-28T11:01:12;2.90;;;2.13;;
1467;SDS011;727;48.892;9.544;2022-09-28T11:03:49;6.07;;;2.30;;
1467;SDS011;727;48.892;9.544;2022-09-28T11:06:22;2.60;;;2.40;;
1467;SDS011;727;48.892;9.544;2022-09-28T11:08:51;3.00;;;2.33;;
1467;SDS011;727;48.892;9.544;2022-09-28T11:11:19;2.43;;;2.23;;
1467;SDS011;727;48.892;9.544;2022-09-28T11:13:48;4.10;;;2.50;;
1467;SDS011;727;48.892;9.544;2022-09-28T11:16:20;3.43;;;2.60;;
1467;SDS011;727;48.892;9.544;2022-09-28T11:18:49;6.10;;;2.47;;
1467;SDS011;727;48.892;9.544;2022-09-28T11:21:17;5.40;;;2.90;;
1467;SDS011;727;48.892;9.544;2022-09-28T11:23:57;5.70;;;2.37;;
1467;SDS011;727;48.892;9.544;2022-09-28T11:26:32;2.80;;;2.60;;
1467;SDS011;727;48.892;9.544;2022-09-28T11:29:11;4.63;;;3.17;;
1467;SDS011;727;48.892;9.544;2022-09-28T11:31:45;4.73;;;2.50;;
1467;SDS011;727;48.892;9.544;2022-09-28T11:34:13;2.60;;;1.70;;
1467;SDS011;727;48.892;9.544;2022-09-28T11:39:52;3.13;;;2.53;;
1467;SDS011;727;48.892;9.544;2022-09-28T11:42:26;2.43;;;2.23;;
1467;SDS011;727;48.892;9.544;2022-09-28T11:45:08;2.70;;;2.50;;
1467;SDS011;727;48.892;9.544;2022-09-28T11:47:49;4.70;;;2.50;;
1467;SDS011;727;48.892;9.544;2022-09-28T11:50:25;6.60;;;3.00;;
1467;SDS011;727;48.892;9.544;2022-09-28T11:52:57;2.73;;;2.00;;
1467;SDS011;727;48.892;9.544;2022-09-28T11:55:31;3.67;;;2.20;;
1467;SDS011;727;48.892;9.544;2022-09-28T11:58:05;6.23;;;2.40;;
1467;SDS011;727;48.892;9.544;2022-09-28T12:00:41;3.40;;;2.00;;
1467;SDS011;727;48.892;9.544;2022-09-28T12:03:11;1.73;;;1.60;;
1467;SDS011;727;48.892;9.544;2022-09-28T12:05:43;2.07;;;1.70;;
1467;SDS011;727;48.892;9.544;2022-09-28T12:08:15;4.87;;;2.33;;
1467;SDS011;727;48.892;9.544;2022-09-28T12:10:50;2.10;;;1.83;;
1467;SDS011;727;48.892;9.544;2022-09-28T12:13:22;3.93;;;2.10;;
1467;SDS011;727;48.892;9.544;2022-09-28T12:15:53;3.43;;;1.73;;
1467;SDS011;727;48.892;9.544;2022-09-28T12:18:25;2.73;;;1.33;;
1467;SDS011;727;48.892;9.544;2022-09-28T12:20:58;2.20;;;1.80;;
1467;SDS011;727;48.892;9.544;2022-09-28T12:23:32;1.93;;;1.83;;
1467;SDS011;727;48.892;9.544;2022-09-28T12:26:02;2.30;;;2.00;;
1467;SDS011;727;48.892;9.544;2022-09-28T12:28:37;2.10;;;2.00;;
1467;SDS011;727;48.892;9.544;2022-09-28T12:31:10;2.30;;;1.90;;
1467;SDS011;727;48.892;9.544;2022-09-28T12:33:41;5.70;;;3.50;;
1467;SDS011;727;48.892;9.544;2022-09-28T12:36:14;1.30;;;1.20;;
1467;SDS011;727;48.892;9.544;2022-09-28T12:38:58;1.73;;;1.63;;
1467;SDS011;727;48.892;9.544;2022-09-28T12:41:38;2.33;;;1.60;;
1467;SDS011;727;48.892;9.544;2022-09-28T12:44:22;2.33;;;1.23;;
1467;SDS011;727;48.892;9.544;2022-09-28T12:47:06;3.17;;;1.60;;
1467;SDS011;727;48.892;9.544;2022-09-28T12:49:48;2.10;;;1.50;;
1467;SDS011;727;48.892;9.544;2022-09-28T12:52:26;4.27;;;2.17;;
1467;SDS011;727;48.892;9.544;2022-09-28T12:55:02;4.70;;;1.40;;
1467;SDS011;727;48.892;9.544;2022-09-28T12:57:41;1.60;;;1.40;;
1467;SDS011;727;48.892;9.544;2022-09-28T13:00:19;3.17;;;1.70;;
1467;SDS011;727;48.892;9.544;2022-09-28T13:02:56;4.60;;;2.30;;
1467;SDS011;727;48.892;9.544;2022-09-28T13:11:48;2.73;;;2.03;;
1467;SDS011;727;48.892;9.544;2022-09-28T13:17:47;4.27;;;1.80;;
1467;SDS011;727;48.892;9.544;2022-09-28T13:20:23;2.37;;;2.17;;
1467;SDS011;727;48.892;9.544;2022-09-28T13:22:57;3.00;;;1.40;;
1467;SDS011;727;48.892;9.544;2022-09-28T13:25:32;5.40;;;2.37;;
1467;SDS011;727;48.892;9.544;2022-09-28T13:28:05;2.30;;;1.90;;
1467;SDS011;727;48.892;9.544;2022-09-28T13:30:33;2.20;;;1.90;;
1467;SDS011;727;48.892;9.544;2022-09-28T13:33:04;4.03;;;1.90;;
1467;SDS011;727;48.892;9.544;2022-09-28T13:35:34;3.90;;;2.33;;
1467;SDS011;727;48.892;9.544;2022-09-28T13:41:14;3.93;;;1.50;;
1467;SDS011;727;48.892;9.544;2022-09-28T13:43:52;2.60;;;1.70;;
1467;SDS011;727;48.892;9.544;2022-09-28T13:46:31;4.80;;;1.73;;
1467;SDS011;727;48.892;9.544;2022-09-28T13:49:03;3.40;;;1.80;;
1467;SDS011;727;48.892;9.544;2022-09-28T13:51:44;3.87;;;2.80;;
1467;SDS011;727;48.892;9.544;2022-09-28T13:54:25;2.97;;;2.13;;
1467;SDS011;727;48.892;9.544;2022-09-28T13:57:08;3.23;;;1.70;;
1467;SDS011;727;48.892;9.544;2022-09-28T13:59:44;4.00;;;2.40;;
1467;SDS011;727;48.892;9.544;2022-09-28T14:02:19;1.80;;;1.70;;
1467;SDS011;727;48.892;9.544;2022-09-28T14:04:55;4.20;;;2.00;;
1467;SDS011;727;48.892;9.544;2022-09-28T14:07:25;2.10;;;1.47;;
1467;SDS011;727;48.892;9.544;2022-09-28T14:10:17;4.73;;;1.57;;
1467;SDS011;727;48.892;9.544;2022-09-28T14:12:45;3.93;;;1.70;;
1467;SDS011;727;48.892;9.544;2022-09-28T14:18:10;3.20;;;1.47;;
1467;SDS011;727;48.892;9.544;2022-09-28T14:20:56;2.13;;;1.50;;
1467;SDS011;727;48.892;9.544;2022-09-28T14:23:39;3.60;;;1.60;;
1467;SDS011;727;48.892;9.544;2022-09-28T14:26:30;3.70;;;1.37;;
1467;SDS011;727;48.892;9.544;2022-09-28T14:29:22;3.10;;;2.00;;
1467;SDS011;727;48.892;9.544;2022-09-28T14:31:55;4.33;;;1.77;;
1467;SDS011;727;48.892;9.544;2022-09-28T14:34:30;4.50;;;1.53;;
1467;SDS011;727;48.892;9.544;2022-09-28T14:36:59;1.80;;;1.57;;
1467;SDS011;727;48.892;9.544;2022-09-28T14:39:45;2.13;;;1.57;;
1467;SDS011;727;48.892;9.544;2022-09-28T14:42:31;5.73;;;1.60;;
1467;SDS011;727;48.892;9.544;2022-09-28T14:45:17;4.20;;;1.83;;
1467;SDS011;727;48.892;9.544;2022-09-28T14:50:38;5.10;;;1.73;;
1467;SDS011;727;48.892;9.544;2022-09-28T14:53:05;1.70;;;1.53;;
1467;SDS011;727;48.892;9.544;2022-09-28T14:55:37;1.93;;;1.77;;
1467;SDS011;727;48.892;9.544;2022-09-28T14:58:16;2.30;;;2.10;;
1467;SDS011;727;48.892;9.544;2022-09-28T15:00:46;4.60;;;1.50;;
1467;SDS011;727;48.892;9.544;2022-09-28T15:03:16;3.83;;;1.70;;
1467;SDS011;727;48.892;9.544;2022-09-28T15:05:46;1.50;;;1.40;;
1467;SDS011;727;48.892;9.544;2022-09-28T15:08:13;2.80;;;2.00;;
1467;SDS011;727;48.892;9.544;2022-09-28T15:10:43;2.10;;;1.73;;
1467;SDS011;727;48.892;9.544;2022-09-28T15:13:17;1.70;;;1.60;;
1467;SDS011;727;48.892;9.544;2022-09-28T15:15:47;3.60;;;2.10;;
1467;SDS011;727;48.892;9.544;2022-09-28T15:18:26;3.20;;;1.83;;
1467;SDS011;727;48.892;9.544;2022-09-28T15:21:07;4.80;;;1.53;;
1467;SDS011;727;48.892;9.544;2022-09-28T15:23:35;5.73;;;5.13;;
1467;SDS011;727;48.892;9.544;2022-09-28T15:26:04;4.10;;;2.27;;
1467;SDS011;727;48.892;9.544;2022-09-28T15:28:34;3.40;;;2.10;;
1467;SDS011;727;48.892;9.544;2022-09-28T15:31:03;3.33;;;2.03;;
1467;SDS011;727;48.892;9.544;2022-09-28T15:33:31;1.90;;;1.60;;
1467;SDS011;727;48.892;9.544;2022-09-28T15:36:17;2.27;;;2.07;;
1467;SDS011;727;48.892;9.544;2022-09-28T15:38:49;1.87;;;1.60;;
1467;SDS011;727;48.892;9.544;2022-09-28T15:41:20;1.43;;;1.33;;
1467;SDS011;727;48.892;9.544;2022-09-28T15:44:02;7.57;;;1.80;;
1467;SDS011;727;48.892;9.544;2022-09-28T15:46:33;1.40;;;1.30;;
1467;SDS011;727;48.892;9.544;2022-09-28T15:49:01;1.50;;;1.40;;
1467;SDS011;727;48.892;9.544;2022-09-28T15:51:28;1.60;;;1.30;;
1467;SDS011;727;48.892;9.544;2022-09-28T15:53:58;6.10;;;1.60;;
1467;SDS011;727;48.892;9.544;2022-09-28T15:56:28;2.07;;;1.97;;
1467;SDS011;727;48.892;9.544;2022-09-28T15:59:10;2.20;;;1.90;;
1467;SDS011;727;48.892;9.544;2022-09-28T16:01:47;2.47;;;1.80;;
1467;SDS011;727;48.892;9.544;2022-09-28T16:04:36;3.23;;;1.90;;
1467;SDS011;727;48.892;9.544;2022-09-28T16:07:16;1.47;;;1.37;;
1467;SDS011;727;48.892;9.544;2022-09-28T16:09:54;4.63;;;2.33;;
1467;SDS011;727;48.892;9.544;2022-09-28T16:12:22;3.20;;;1.47;;
1467;SDS011;727;48.892;9.544;2022-09-28T16:14:57;5.07;;;1.67;;
1467;SDS011;727;48.892;9.544;2022-09-28T16:17:29;3.37;;;1.67;;
1467;SDS011;727;48.892;9.544;2022-09-28T16:19:58;3.60;;;1.83;;